Time;durP1;ratioP1;P1;durP2;ratioP2;P2;SDS_P1;SDS_P2;PMS_P1;PMS_P2;Temp;Humidity;BMP_temperature;BMP_pressure;BME280_temperature;BME280_humidity;BME280_pressure;Samples;Min_cycle;Max_cycle;Signal;HPM_P1;HPM_P2
2021/05/03 00:00:43;;;;;;;10.73;7.15;;;;;;;5.27;81.14;100182.37;127952;1104;22383;-74
2021/05/03 00:03:16;;;;;;;9.73;7.30;;;;;;;5.29;81.07;100179.59;127895;1104;22380;-74
2021/05/03 00:05:46;;;;;;;10.38;7.93;;;;;;;5.29;80.87;100182.22;127935;1104;22390;-74
2021/05/03 00:08:15;;;;;;;9.18;7.45;;;;;;;5.27;80.86;100173.69;127968;1101;22359;-74
2021/05/03 00:10:44;;;;;;;10.35;6.73;;;;;;;5.26;80.77;100180.69;127902;1100;24703;-73
2021/05/03 00:13:13;;;;;;;8.03;6.53;;;;;;;5.27;80.96;100197.26;127944;1101;24514;-74
2021/05/03 00:15:43;;;;;;;6.65;5.68;;;;;;;5.25;80.84;100186.91;127516;1104;22379;-74
2021/05/03 00:18:12;;;;;;;6.55;5.03;;;;;;;5.26;80.89;100200.83;127930;1104;22487;-74
2021/05/03 00:20:41;;;;;;;6.83;6.10;;;;;;;5.26;80.98;100198.20;127974;1104;23275;-74
2021/05/03 00:23:10;;;;;;;6.95;5.43;;;;;;;5.25;80.79;100200.00;127898;1104;22380;-74
2021/05/03 00:25:38;;;;;;;7.90;6.68;;;;;;;5.26;80.75;100200.83;127919;1101;24329;-74
2021/05/03 00:28:08;;;;;;;12.40;6.25;;;;;;;5.26;80.82;100193.79;127910;1101;22359;-74
2021/05/03 00:30:36;;;;;;;6.98;5.88;;;;;;;5.25;80.89;100197.38;127945;1105;22388;-74
2021/05/03 00:33:06;;;;;;;7.25;6.05;;;;;;;5.27;80.73;100199.88;127976;1098;24622;-74
2021/05/03 00:35:35;;;;;;;8.70;6.38;;;;;;;5.26;80.79;100201.64;128211;1101;22348;-74
2021/05/03 00:38:05;;;;;;;6.75;5.88;;;;;;;5.26;80.74;100203.44;128228;1101;22336;-73
2021/05/03 00:40:35;;;;;;;8.10;6.70;;;;;;;5.25;80.58;100207.86;128217;1101;22330;-72
2021/05/03 00:43:04;;;;;;;9.63;6.35;;;;;;;5.27;80.76;100210.36;128203;1098;23122;-74
2021/05/03 00:45:33;;;;;;;8.65;5.65;;;;;;;5.26;80.62;100213.92;128010;1098;23193;-73
2021/05/03 00:48:02;;;;;;;13.05;6.25;;;;;;;5.25;80.50;100218.33;128206;1101;22345;-73
2021/05/03 00:50:32;;;;;;;9.40;6.13;;;;;;;5.25;80.53;100215.71;128221;1098;22349;-74
2021/05/03 00:53:00;;;;;;;8.55;6.65;;;;;;;5.25;80.57;100215.71;128043;1101;22785;-74
2021/05/03 00:55:30;;;;;;;7.00;6.30;;;;;;;5.26;80.50;100216.53;127927;1101;22356;-73
2021/05/03 00:58:03;;;;;;;8.90;6.10;;;;;;;5.26;80.56;100213.92;127931;1104;22365;-74
2021/05/03 01:00:33;;;;;;;7.45;6.45;;;;;;;5.26;80.43;100217.36;127525;1104;22393;-73
2021/05/03 01:03:02;;;;;;;7.80;6.20;;;;;;;5.24;80.29;100219.31;127570;1103;24352;-73
2021/05/03 01:05:32;;;;;;;9.35;6.88;;;;;;;5.25;80.33;100222.75;127932;1105;22377;-73
2021/05/03 01:08:03;;;;;;;7.88;6.93;;;;;;;5.25;80.47;100226.19;127591;1104;22392;-74
2021/05/03 01:10:31;;;;;;;9.23;7.05;;;;;;;5.26;80.46;100222.59;127940;1103;22399;-74
2021/05/03 01:13:00;;;;;;;8.83;6.48;;;;;;;5.27;80.48;100220.83;127577;1101;22889;-73
2021/05/03 01:15:29;;;;;;;8.95;7.08;;;;;;;5.27;80.49;100218.21;127546;1104;22439;-73
2021/05/03 01:18:04;;;;;;;9.73;6.68;;;;;;;5.28;80.38;100225.92;127559;1105;22372;-74
2021/05/03 01:20:38;;;;;;;10.28;7.53;;;;;;;5.29;80.45;100218.88;128019;1101;24332;-73
2021/05/03 01:23:08;;;;;;;10.03;7.43;;;;;;;5.29;80.34;100224.13;127625;1104;22469;-72
2021/05/03 01:25:41;;;;;;;8.35;7.00;;;;;;;5.28;80.41;100231.16;127513;1107;22618;-73
2021/05/03 01:28:10;;;;;;;11.05;6.90;;;;;;;5.28;80.47;100220.68;127602;1104;22359;-73
2021/05/03 01:30:42;;;;;;;11.75;7.25;;;;;;;5.30;80.51;100217.91;127490;1103;24510;-74
2021/05/03 01:33:13;;;;;;;8.23;6.53;;;;;;;5.32;80.38;100232.53;127639;1104;23845;-74
2021/05/03 01:35:48;;;;;;;7.90;6.35;;;;;;;5.32;80.31;100229.09;127980;1104;22791;-73
2021/05/03 01:38:17;;;;;;;8.70;6.95;;;;;;;5.33;80.10;100220.26;127947;1104;22356;-73
2021/05/03 01:40:46;;;;;;;8.20;6.38;;;;;;;5.33;80.21;100225.50;127986;1102;22386;-74
2021/05/03 01:43:22;;;;;;;8.38;6.60;;;;;;;5.33;80.17;100222.88;128008;1102;22352;-73
2021/05/03 01:45:55;;;;;;;7.83;6.20;;;;;;;5.32;80.30;100222.05;128229;1101;22382;-74
2021/05/03 01:48:28;;;;;;;9.83;6.40;;;;;;;5.34;80.22;100219.31;128084;1101;24064;-73
2021/05/03 01:50:59;;;;;;;10.45;6.93;;;;;;;5.36;80.13;100219.98;128224;1101;22337;-72
2021/05/03 01:53:28;;;;;;;8.97;6.87;;;;;;;5.38;80.44;100215.45;128242;1101;22358;-74
2021/05/03 01:55:58;;;;;;;9.08;7.45;;;;;;;5.37;80.08;100222.48;128234;1101;22354;-72
2021/05/03 01:58:27;;;;;;;8.18;6.75;;;;;;;5.38;80.05;100223.31;128232;1101;22345;-73
2021/05/03 02:01:00;;;;;;;13.08;6.93;;;;;;;5.38;80.08;100213.66;128023;1098;24469;-73
2021/05/03 02:03:29;;;;;;;10.98;6.60;;;;;;;5.38;80.00;100220.69;128203;1101;22370;-73
2021/05/03 02:05:58;;;;;;;11.55;7.63;;;;;;;5.38;80.06;100223.31;128245;1101;22357;-73
2021/05/03 02:08:27;;;;;;;8.73;7.03;;;;;;;5.37;79.95;100217.25;128239;1101;22462;-73
2021/05/03 02:10:56;;;;;;;8.43;6.45;;;;;;;5.34;79.88;100211.45;128217;1101;22339;-75
2021/05/03 02:13:26;;;;;;;8.03;6.35;;;;;;;5.34;79.86;100219.31;128028;1101;22393;-73
2021/05/03 02:15:55;;;;;;;8.90;6.43;;;;;;;5.34;79.88;100228.00;128095;1101;22361;-73
2021/05/03 02:18:24;;;;;;;9.30;5.95;;;;;;;5.31;79.85;100216.97;128011;1098;22352;-72
2021/05/03 02:20:53;;;;;;;7.15;5.18;;;;;;;5.31;79.88;100219.59;128179;1098;22443;-72
2021/05/03 02:23:22;;;;;;;9.20;5.43;;;;;;;5.27;79.64;100218.21;128246;1101;22355;-73
2021/05/03 02:25:51;;;;;;;7.03;5.63;;;;;;;5.23;79.65;100227.28;128214;1101;22334;-75
2021/05/03 02:28:19;;;;;;;5.63;4.53;;;;;;;5.24;79.95;100223.72;128054;1098;24173;-74
2021/05/03 02:30:48;;;;;;;5.80;4.53;;;;;;;5.25;79.98;100220.95;127961;1101;23311;-73
2021/05/03 02:33:17;;;;;;;5.23;4.50;;;;;;;5.24;79.69;100226.34;128229;1101;22379;-73
2021/05/03 02:35:46;;;;;;;6.45;4.35;;;;;;;5.21;79.51;100231.84;128238;1101;22352;-73
2021/05/03 02:38:14;;;;;;;5.83;3.90;;;;;;;5.16;79.54;100229.62;128244;1101;22358;-73
2021/05/03 02:40:43;;;;;;;5.75;4.45;;;;;;;5.14;79.48;100227.15;128236;1098;24499;-73
2021/05/03 02:43:12;;;;;;;6.65;3.85;;;;;;;5.14;79.63;100231.56;128184;1101;22345;-73
2021/05/03 02:45:41;;;;;;;4.87;3.90;;;;;;;5.14;79.50;100232.39;128246;1098;22355;-74
2021/05/03 02:48:09;;;;;;;4.48;3.63;;;;;;;5.15;79.44;100234.03;127902;1104;22360;-74
2021/05/03 02:50:39;;;;;;;4.50;3.83;;;;;;;5.15;79.46;100236.66;127934;1104;22433;-73
2021/05/03 02:53:08;;;;;;;6.18;4.03;;;;;;;5.14;79.32;100239.42;127977;1101;22377;-74
2021/05/03 02:55:37;;;;;;;5.43;4.13;;;;;;;5.11;79.38;100242.30;127540;1104;22859;-74
2021/05/03 02:58:05;;;;;;;4.68;3.78;;;;;;;5.11;79.24;100243.13;127571;1103;24189;-74
2021/05/03 03:00:36;;;;;;;6.90;4.95;;;;;;;5.12;79.38;100239.54;127931;1103;24585;-76
2021/05/03 03:03:06;;;;;;;8.40;4.45;;;;;;;5.16;79.34;100237.47;127656;1106;22503;-74
2021/05/03 03:05:34;;;;;;;11.03;6.63;;;;;;;5.16;79.17;100251.42;127595;1104;22362;-74
2021/05/03 03:08:04;;;;;;;6.28;4.58;;;;;;;5.16;79.32;100248.80;127999;1104;23163;-74
2021/05/03 03:10:33;;;;;;;5.25;3.78;;;;;;;5.16;79.12;100251.42;127912;1104;22427;-72
2021/05/03 03:13:04;;;;;;;6.85;5.08;;;;;;;5.13;79.13;100248.22;127939;1102;22350;-73
2021/05/03 03:15:36;;;;;;;7.38;4.30;;;;;;;5.10;79.10;100257.19;128185;1101;22355;-75
2021/05/03 03:18:06;;;;;;;4.58;4.10;;;;;;;5.09;78.76;100255.52;128257;1101;22364;-74
2021/05/03 03:20:35;;;;;;;4.60;4.13;;;;;;;5.10;79.11;100259.81;127970;1098;24507;-72
2021/05/03 03:23:04;;;;;;;7.05;5.08;;;;;;;5.09;78.98;100258.13;128199;1101;22355;-75
2021/05/03 03:25:33;;;;;;;5.00;4.13;;;;;;;5.10;79.04;100257.19;128191;1101;22355;-73
2021/05/03 03:28:01;;;;;;;6.40;4.10;;;;;;;5.12;79.04;100255.25;128194;1101;22360;-73
2021/05/03 03:30:30;;;;;;;5.18;4.45;;;;;;;5.12;78.77;100268.34;128192;1098;22353;-73
2021/05/03 03:32:59;;;;;;;5.73;4.40;;;;;;;5.12;78.87;100272.75;128272;1098;24246;-74
2021/05/03 03:35:29;;;;;;;4.88;4.23;;;;;;;5.12;78.86;100276.20;127906;1104;22688;-73
2021/05/03 03:37:57;;;;;;;5.38;4.40;;;;;;;5.12;78.61;100276.20;127957;1100;24189;-74
2021/05/03 03:40:26;;;;;;;5.30;4.05;;;;;;;5.11;78.51;100287.64;127866;1104;22419;-73
2021/05/03 03:42:55;;;;;;;6.45;4.20;;;;;;;5.09;78.45;100284.31;128010;1104;22647;-74
2021/05/03 03:45:24;;;;;;;5.55;3.95;;;;;;;5.08;78.67;100297.56;127971;1104;22426;-74
2021/05/03 03:47:53;;;;;;;4.60;3.60;;;;;;;5.07;78.51;100296.73;127974;1101;22410;-75
2021/05/03 03:50:21;;;;;;;4.33;3.83;;;;;;;5.07;78.66;100295.91;127939;1104;22340;-73
2021/05/03 03:52:50;;;;;;;4.00;3.60;;;;;;;5.09;78.64;100305.27;127958;1102;22339;-72
2021/05/03 03:55:19;;;;;;;4.83;4.30;;;;;;;5.11;78.69;100305.15;128194;1101;22366;-73
2021/05/03 03:57:47;;;;;;;3.98;2.90;;;;;;;5.12;78.65;100317.27;128219;1101;22343;-73
2021/05/03 04:00:17;;;;;;;5.45;4.13;;;;;;;5.12;78.69;100312.86;128190;1098;22377;-73
2021/05/03 04:02:46;;;;;;;6.55;4.28;;;;;;;5.13;78.65;100319.77;128199;1101;22424;-73
2021/05/03 04:06:07;;;;;;;5.98;4.03;;;;;;;5.12;78.59;100314.65;128206;1101;22383;-73
2021/05/03 04:08:18;;;;;;;5.35;3.58;;;;;;;5.08;78.58;100324.56;127879;1104;22425;-73
2021/05/03 04:11:12;;;;;;;5.65;3.78;;;;;;;5.08;78.66;100324.56;127958;1101;22416;-73
2021/05/03 04:22:35;;;;;;;5.35;4.08;;;;;;;5.12;78.70;100339.04;127970;1104;22362;-73
2021/05/03 04:25:12;;;;;;;5.38;3.58;;;;;;;5.14;79.00;100336.31;127942;1101;22348;-73
2021/05/03 04:27:40;;;;;;;4.48;3.75;;;;;;;5.14;78.92;100329.28;128203;1101;22352;-72
2021/05/03 04:30:11;;;;;;;5.90;3.90;;;;;;;5.19;79.01;100331.48;128222;1101;22456;-73
2021/05/03 04:32:40;;;;;;;3.70;3.30;;;;;;;5.21;78.95;100339.22;128060;1102;22356;-74
2021/05/03 04:35:09;;;;;;;7.43;3.70;;;;;;;5.24;79.04;100346.81;128184;1101;22359;-73
2021/05/03 04:37:41;;;;;;;5.93;3.60;;;;;;;5.25;78.79;100358.94;128191;1101;22453;-73
2021/05/03 04:40:11;;;;;;;4.93;3.98;;;;;;;5.25;78.83;100359.77;128196;1101;22368;-73
2021/05/03 04:42:40;;;;;;;5.08;3.80;;;;;;;5.26;78.96;100364.03;128286;1101;22551;-73
2021/05/03 04:45:11;;;;;;;5.18;3.85;;;;;;;5.28;78.92;100358.67;128181;1098;24488;-73
2021/05/03 04:47:42;;;;;;;5.37;3.47;;;;;;;5.28;78.76;100361.30;128217;1098;22364;-74
2021/05/03 04:50:11;;;;;;;4.13;3.68;;;;;;;5.27;78.79;100363.09;128186;1098;25004;-73
2021/05/03 04:52:40;;;;;;;4.98;3.50;;;;;;;5.28;78.75;100359.50;128237;1101;22398;-73
2021/05/03 04:55:10;;;;;;;4.78;3.40;;;;;;;5.32;78.91;100368.74;128235;1101;23291;-73
2021/05/03 04:57:38;;;;;;;6.00;4.00;;;;;;;5.34;79.08;100364.21;128349;1101;22345;-73
2021/05/03 05:00:08;;;;;;;5.05;3.60;;;;;;;5.38;78.84;100364.77;128253;1098;22353;-72
2021/05/03 05:02:37;;;;;;;4.85;3.58;;;;;;;5.40;78.89;100365.48;128231;1098;24523;-75
2021/05/03 05:05:11;;;;;;;5.38;3.55;;;;;;;5.41;78.78;100367.95;128234;1101;22430;-73
2021/05/03 05:07:41;;;;;;;5.90;4.10;;;;;;;5.46;78.85;100378.02;127913;1101;22355;-73
2021/05/03 05:10:12;;;;;;;7.90;3.83;;;;;;;5.48;78.79;100375.28;128008;1104;22362;-73
2021/05/03 05:12:43;;;;;;;5.75;3.50;;;;;;;5.48;78.41;100381.34;127961;1104;22358;-73
2021/05/03 05:15:15;;;;;;;6.55;3.10;;;;;;;5.48;78.76;100389.20;128000;1104;22348;-72
2021/05/03 05:17:47;;;;;;;3.80;3.03;;;;;;;5.48;78.63;100391.00;127958;1105;22342;-72
2021/05/03 05:20:17;;;;;;;5.38;2.98;;;;;;;5.49;78.67;100398.70;127928;1101;24473;-72
2021/05/03 05:22:46;;;;;;;5.28;3.50;;;;;;;5.51;78.50;100402.03;127987;1101;24565;-72
2021/05/03 05:25:15;;;;;;;6.28;3.08;;;;;;;5.54;78.24;100408.81;127497;1102;22374;-72
2021/05/03 05:27:43;;;;;;;4.05;2.93;;;;;;;5.55;78.21;100410.45;127523;1106;22387;-72
2021/05/03 05:30:13;;;;;;;5.70;3.33;;;;;;;5.57;78.43;100417.23;127546;1103;22356;-72
2021/05/03 05:32:42;;;;;;;6.60;3.00;;;;;;;5.61;78.38;100418.61;127753;1104;22389;-73
2021/05/03 05:35:11;;;;;;;4.08;2.88;;;;;;;5.65;78.41;100425.23;127897;1100;22373;-72
2021/05/03 05:37:39;;;;;;;3.90;3.00;;;;;;;5.69;78.45;100419.73;127919;1104;22377;-73
2021/05/03 05:40:08;;;;;;;3.40;2.68;;;;;;;5.74;78.32;100428.03;127937;1101;22427;-73
2021/05/03 05:42:37;;;;;;;4.45;3.68;;;;;;;5.75;78.26;100427.06;127971;1101;22377;-73
2021/05/03 05:45:07;;;;;;;4.50;3.13;;;;;;;5.77;78.05;100427.77;128235;1101;22346;-73
2021/05/03 05:47:35;;;;;;;4.40;3.10;;;;;;;5.80;78.11;100435.36;128178;1100;23914;-73
2021/05/03 05:50:05;;;;;;;5.83;3.05;;;;;;;5.82;78.04;100430.80;128159;1098;22364;-73
2021/05/03 05:52:34;;;;;;;3.95;3.25;;;;;;;5.84;77.84;100431.50;128211;1101;22852;-74
2021/05/03 05:55:05;;;;;;;7.35;3.50;;;;;;;5.85;77.91;100441.02;127994;1098;24977;-73
2021/05/03 05:57:34;;;;;;;4.60;3.60;;;;;;;5.87;77.65;100441.72;128214;1101;22741;-73
2021/05/03 06:00:05;;;;;;;3.45;3.08;;;;;;;5.88;77.69;100449.44;128201;1101;22347;-74
2021/05/03 06:02:41;;;;;;;6.50;3.10;;;;;;;5.89;77.71;100447.64;127928;1104;22976;-73
2021/05/03 06:05:11;;;;;;;6.35;4.00;;;;;;;5.91;77.59;100456.20;127914;1100;22381;-73
2021/05/03 06:07:40;;;;;;;5.25;3.45;;;;;;;5.90;77.57;100454.56;128034;1104;22450;-73
2021/05/03 06:10:11;;;;;;;4.00;3.08;;;;;;;5.90;77.50;100452.77;127918;1104;23841;-74
2021/05/03 06:12:39;;;;;;;7.10;4.70;;;;;;;5.90;77.45;100455.39;127925;1104;22356;-74
2021/05/03 06:15:09;;;;;;;6.28;4.15;;;;;;;5.90;77.41;100457.19;127518;1104;23319;-74
2021/05/03 06:17:38;;;;;;;4.55;3.50;;;;;;;5.92;77.50;100457.03;127538;1107;22381;-74
2021/05/03 06:20:08;;;;;;;6.37;4.20;;;;;;;5.94;77.28;100463.02;127514;1105;22392;-75
2021/05/03 06:22:36;;;;;;;6.28;4.88;;;;;;;5.95;77.26;100462.87;127981;1104;22359;-74
2021/05/03 06:25:08;;;;;;;6.65;4.28;;;;;;;5.99;77.41;100471.29;127913;1104;22366;-73
2021/05/03 06:27:36;;;;;;;4.50;4.00;;;;;;;6.02;77.35;100474.47;127920;1101;22365;-73
2021/05/03 06:30:06;;;;;;;7.65;5.43;;;;;;;6.09;77.47;100480.83;127916;1104;22368;-73
2021/05/03 06:32:35;;;;;;;5.00;4.30;;;;;;;6.15;77.60;100474.22;127950;1102;24508;-73
2021/05/03 06:35:04;;;;;;;7.13;4.80;;;;;;;6.20;77.27;100479.05;128183;1101;23139;-73
2021/05/03 06:37:33;;;;;;;7.78;5.75;;;;;;;6.22;77.24;100480.58;127966;1101;22377;-73
2021/05/03 06:40:01;;;;;;;5.48;4.65;;;;;;;6.29;77.34;100486.10;127941;1101;22404;-73
2021/05/03 06:42:31;;;;;;;5.65;4.30;;;;;;;6.36;77.36;100489.83;127929;1104;22798;-73
2021/05/03 06:44:59;;;;;;;5.90;4.00;;;;;;;6.39;77.20;100496.61;127906;1100;22384;-73
2021/05/03 06:47:28;;;;;;;5.73;5.05;;;;;;;6.45;77.33;100490.81;128024;1104;22385;-73
2021/05/03 06:49:57;;;;;;;6.45;5.08;;;;;;;6.53;77.24;100489.17;127904;1100;22373;-73
2021/05/03 06:52:26;;;;;;;4.85;4.18;;;;;;;6.60;77.04;100495.52;127952;1104;22604;-72
2021/05/03 06:54:54;;;;;;;5.88;4.98;;;;;;;6.68;76.94;100510.58;127909;1101;24520;-75
2021/05/03 06:57:23;;;;;;;5.83;5.23;;;;;;;6.71;76.72;100499.80;128220;1098;22354;-74
2021/05/03 06:59:52;;;;;;;7.60;4.13;;;;;;;6.77;76.56;100506.30;128173;1101;22364;-75
2021/05/03 07:02:23;;;;;;;5.00;4.18;;;;;;;6.83;76.63;100503.09;128236;1101;22456;-74
2021/05/03 07:04:52;;;;;;;7.83;4.97;;;;;;;6.92;76.59;100504.06;128169;1101;22369;-74
2021/05/03 07:07:22;;;;;;;5.05;4.30;;;;;;;7.02;76.56;100510.13;128288;1098;24481;-75
2021/05/03 07:09:51;;;;;;;5.63;4.98;;;;;;;7.08;76.13;100514.82;128177;1098;22452;-75
2021/05/03 07:12:24;;;;;;;6.05;5.45;;;;;;;7.17;76.37;100515.78;127931;1101;22384;-74
2021/05/03 07:14:53;;;;;;;;;;;;;;;7.22;75.69;100521.42;127988;1101;24507;-77
2021/05/03 07:17:21;;;;;;;5.70;5.20;;;;;;;7.24;76.03;100517.69;127911;1104;21278;-76
2021/05/03 07:19:50;;;;;;;5.67;4.63;;;;;;;7.33;75.81;100529.16;127926;1104;22375;-75
2021/05/03 07:22:23;;;;;;;6.93;5.10;;;;;;;7.42;75.45;100530.91;127951;1104;22484;-75
2021/05/03 07:24:52;;;;;;;4.88;4.38;;;;;;;7.48;74.94;100529.52;127930;1101;22394;-74
2021/05/03 07:27:21;;;;;;;5.00;4.03;;;;;;;7.52;74.68;100536.97;127918;1101;25154;-74
2021/05/03 07:29:49;;;;;;;6.30;4.30;;;;;;;7.53;74.04;100535.16;127973;1098;25008;-75
2021/05/03 07:32:18;;;;;;;10.03;3.63;;;;;;;7.50;73.61;100536.30;128223;1101;22373;-75
2021/05/03 07:34:51;;;;;;;5.40;3.78;;;;;;;7.47;73.20;100533.95;128206;1101;23986;-74
2021/05/03 07:37:21;;;;;;;4.50;2.73;;;;;;;7.48;73.04;100542.66;127996;1098;24488;-74
2021/05/03 07:39:50;;;;;;;5.63;3.38;;;;;;;7.49;72.78;100555.65;127909;1104;22821;-75
2021/05/03 07:42:19;;;;;;;5.25;3.48;;;;;;;7.49;72.32;100550.39;127497;1107;22494;-75
2021/05/03 07:45:11;;;;;;;6.03;5.43;;;;;;;7.47;72.08;100559.42;127449;1107;22362;-75
2021/05/03 07:47:42;;;;;;;7.05;4.85;;;;;;;7.46;71.95;100562.99;127354;1108;22372;-75
2021/05/03 07:50:17;;;;;;;8.20;5.53;;;;;;;7.47;72.02;100552.35;127058;1108;22399;-76
2021/05/03 07:52:45;;;;;;;9.75;6.70;;;;;;;7.46;71.71;100557.73;127341;1108;22445;-75
2021/05/03 07:55:17;;;;;;;8.87;6.27;;;;;;;7.44;71.55;100555.27;127075;1106;24665;-74
2021/05/03 07:57:46;;;;;;;7.53;5.60;;;;;;;7.41;71.52;100559.98;127527;1103;22368;-75
2021/05/03 08:00:27;;;;;;;17.08;9.83;;;;;;;7.40;71.42;100561.78;127618;1105;22360;-76
2021/05/03 08:02:57;;;;;;;17.60;13.03;;;;;;;7.34;70.92;100561.52;127496;1106;22373;-75
2021/05/03 08:05:26;;;;;;;16.93;13.98;;;;;;;7.31;71.09;100570.52;127545;1104;22364;-75
2021/05/03 08:07:55;;;;;;;15.85;10.93;;;;;;;7.26;71.11;100570.95;127942;1101;24453;-75
2021/05/03 08:10:27;;;;;;;14.60;11.58;;;;;;;7.25;71.34;100564.01;127957;1104;22910;-75
2021/05/03 08:12:55;;;;;;;15.67;10.23;;;;;;;7.22;71.08;100577.42;127919;1105;22367;-75
2021/05/03 08:15:25;;;;;;;15.90;12.30;;;;;;;7.22;71.44;100573.97;127942;1104;23237;-75
2021/05/03 08:17:56;;;;;;;13.10;9.38;;;;;;;7.24;71.62;100577.30;127943;1105;22346;-75
2021/05/03 08:20:25;;;;;;;24.27;18.63;;;;;;;7.20;71.62;100581.19;127962;1102;22364;-75
2021/05/03 08:22:53;;;;;;;17.13;12.13;;;;;;;7.26;72.03;100586.71;128233;1100;23269;-75
2021/05/03 08:25:22;;;;;;;11.38;10.03;;;;;;;7.31;71.91;100589.73;128002;1098;24472;-75
2021/05/03 08:27:51;;;;;;;12.70;9.18;;;;;;;7.39;71.99;100591.64;128050;1098;22343;-75
2021/05/03 08:30:20;;;;;;;7.88;6.15;;;;;;;7.50;72.09;100591.50;128006;1101;22370;-75
2021/05/03 08:32:49;;;;;;;7.57;5.30;;;;;;;7.54;71.53;100600.75;128173;1098;24553;-75
2021/05/03 08:35:19;;;;;;;9.60;5.60;;;;;;;7.53;71.32;100596.48;128184;1101;22433;-75
2021/05/03 08:37:48;;;;;;;9.63;6.00;;;;;;;7.61;71.45;100592.30;128043;1102;22337;-76
2021/05/03 08:40:16;;;;;;;6.50;4.78;;;;;;;7.71;71.40;100595.73;128217;1098;24689;-75
2021/05/03 08:42:45;;;;;;;7.98;7.03;;;;;;;7.78;71.13;100591.55;128030;1101;22339;-75
2021/05/03 08:45:15;;;;;;;7.20;5.53;;;;;;;7.85;70.91;100597.89;128183;1101;22349;-74
2021/05/03 08:47:59;;;;;;;6.53;4.10;;;;;;;7.87;70.55;100600.39;128252;1098;24469;-75
2021/05/03 08:53:34;;;;;;;11.08;8.55;;;;;;;7.80;69.97;100605.40;128014;1098;22377;-76
2021/05/03 08:56:04;;;;;;;13.50;9.80;;;;;;;7.81;70.22;100611.48;128091;1098;22378;-74
2021/05/03 08:58:40;;;;;;;10.30;8.48;;;;;;;7.83;69.83;100610.38;128145;1098;22352;-75
2021/05/03 09:01:08;;;;;;;7.45;5.00;;;;;;;7.86;70.05;100620.58;128302;1101;22365;-74
2021/05/03 09:03:43;;;;;;;8.23;6.48;;;;;;;7.85;69.65;100618.11;127993;1101;22345;-75
2021/05/03 09:06:12;;;;;;;7.83;6.43;;;;;;;7.82;69.44;100621.02;128024;1098;24447;-75
2021/05/03 09:08:41;;;;;;;5.58;4.93;;;;;;;7.78;69.57;100626.56;128014;1101;22427;-74
2021/05/03 09:11:15;;;;;;;7.85;5.35;;;;;;;7.77;69.61;100622.29;128223;1101;22793;-75
2021/05/03 09:13:44;;;;;;;7.45;6.00;;;;;;;7.78;69.68;100623.11;128207;1101;23242;-77
2021/05/03 09:16:13;;;;;;;13.55;9.00;;;;;;;7.81;69.66;100625.46;128007;1102;22361;-74
2021/05/03 09:18:42;;;;;;;8.85;7.23;;;;;;;7.83;69.57;100625.30;128020;1101;22352;-75
2021/05/03 09:21:29;;;;;;;7.25;6.43;;;;;;;7.84;69.56;100624.35;128229;1101;22348;-74
2021/05/03 09:24:13;;;;;;;26.17;21.13;;;;;;;7.83;69.33;100627.94;128323;1101;22340;-75
2021/05/03 09:27:01;;;;;;;14.58;10.18;;;;;;;7.91;69.71;100631.52;128139;1101;22338;-75
2021/05/03 09:29:39;;;;;;;8.03;5.73;;;;;;;8.05;69.85;100629.39;128228;1098;24151;-75
2021/05/03 09:32:22;;;;;;;6.55;5.65;;;;;;;8.17;69.79;100629.07;128005;1098;22355;-75
2021/05/03 09:34:54;;;;;;;8.98;5.83;;;;;;;8.29;69.46;100624.42;128319;1101;22358;-75
2021/05/03 09:37:38;;;;;;;8.03;5.87;;;;;;;8.37;68.94;100626.34;128134;1101;22464;-76
2021/05/03 09:40:18;;;;;;;6.95;4.13;;;;;;;8.42;68.71;100632.02;128224;1098;22349;-75
2021/05/03 09:42:58;;;;;;;9.05;5.45;;;;;;;8.52;68.66;100631.97;128011;1098;24813;-75
2021/05/03 09:45:30;;;;;;;7.53;5.45;;;;;;;8.62;68.57;100636.19;127991;1101;23297;-76
2021/05/03 09:48:01;;;;;;;8.00;6.08;;;;;;;8.71;68.24;100632.67;128234;1101;22355;-76
2021/05/03 09:50:32;;;;;;;8.40;5.57;;;;;;;8.69;67.28;100637.25;128184;1098;24479;-75
2021/05/03 09:53:15;;;;;;;6.80;5.13;;;;;;;8.78;67.77;100638.17;128205;1101;23468;-74
2021/05/03 09:55:53;;;;;;;6.85;4.60;;;;;;;8.97;67.79;100634.59;128322;1098;24469;-75
2021/05/03 09:58:24;;;;;;;6.83;4.48;;;;;;;9.23;67.83;100625.89;127960;1101;22401;-75
2021/05/03 10:00:58;;;;;;;8.73;4.13;;;;;;;9.70;68.37;100628.25;128170;1104;22570;-75
2021/05/03 10:03:36;;;;;;;4.70;3.55;;;;;;;9.90;65.97;100622.59;127563;1105;22394;-74
2021/05/03 10:06:09;;;;;;;4.30;3.83;;;;;;;10.01;65.54;100626.77;127508;1104;22378;-75
2021/05/03 10:08:39;;;;;;;5.75;4.45;;;;;;;10.11;64.91;100634.56;127499;1103;24246;-74
2021/05/03 10:11:09;;;;;;;6.28;4.35;;;;;;;10.21;64.74;100624.71;127560;1105;22353;-74
2021/05/03 10:13:44;;;;;;;5.00;3.65;;;;;;;10.23;63.56;100635.09;127568;1105;22412;-74
2021/05/03 10:16:13;;;;;;;;;;;;;;;10.00;62.15;100635.67;127711;1104;22471;-73
2021/05/03 10:18:43;;;;;;;3.45;3.10;;;;;;;9.76;62.84;100644.25;128067;1105;21277;-74
2021/05/03 10:21:14;;;;;;;4.40;2.18;;;;;;;9.61;62.96;100645.81;128000;1102;22324;-74
2021/05/03 10:23:45;;;;;;;3.00;2.45;;;;;;;9.35;62.62;100643.97;128115;1101;22395;-74
2021/05/03 10:26:14;;;;;;;3.07;2.73;;;;;;;9.22;63.35;100646.16;128203;1098;23122;-72
2021/05/03 10:28:55;;;;;;;4.23;3.45;;;;;;;9.09;63.50;100643.91;128240;1101;22351;-73
2021/05/03 10:32:00;;;;;;;8.25;5.53;;;;;;;9.02;63.82;100647.30;128182;1101;23157;-73
2021/05/03 10:34:53;;;;;;;6.50;4.60;;;;;;;8.99;64.33;100644.96;128266;1098;22355;-74
2021/05/03 10:37:53;;;;;;;5.60;3.78;;;;;;;9.01;64.57;100648.29;128270;1101;22352;-74
2021/05/03 10:40:23;;;;;;;4.63;3.38;;;;;;;8.91;64.33;100633.38;127926;1104;22601;-74
2021/05/03 10:43:02;;;;;;;6.10;4.00;;;;;;;8.80;64.38;100645.95;128004;1102;22421;-75
2021/05/03 10:49:12;;;;;;;8.97;4.60;;;;;;;8.58;64.76;100653.27;127971;1101;24488;-75
2021/05/03 10:54:47;;;;;;;6.03;4.60;;;;;;;8.43;65.52;100644.20;127957;1104;22346;-74
2021/05/03 10:57:16;;;;;;;6.98;4.70;;;;;;;8.40;65.87;100642.70;127489;1103;22354;-73
2021/05/03 10:59:59;;;;;;;6.70;3.43;;;;;;;8.36;65.77;100637.83;127509;1105;24473;-73
2021/05/03 11:02:46;;;;;;;5.83;4.70;;;;;;;8.34;66.22;100640.63;127473;1108;22367;-72
2021/05/03 11:05:30;;;;;;;4.70;3.55;;;;;;;8.39;66.25;100651.56;127638;1108;22371;-73
2021/05/03 11:08:27;;;;;;;2.97;2.10;;;;;;;8.39;66.38;100648.92;127512;1108;22800;-75
2021/05/03 11:11:03;;;;;;;3.27;2.53;;;;;;;8.41;66.29;100644.36;126965;1111;22375;-75
2021/05/03 11:13:41;;;;;;;4.75;2.20;;;;;;;8.42;66.32;100656.53;126951;1107;24373;-74
2021/05/03 11:16:29;;;;;;;3.13;2.33;;;;;;;8.35;65.80;100650.17;126985;1109;24507;-74
2021/05/03 11:19:22;;;;;;;2.85;2.23;;;;;;;8.25;65.85;100655.48;127099;1106;22399;-76
2021/05/03 11:21:52;;;;;;;3.45;2.85;;;;;;;8.15;66.19;100664.39;126968;1111;22503;-78
2021/05/03 11:24:29;;;;;;;5.23;3.70;;;;;;;8.12;66.29;100662.05;126918;1111;23282;-74
2021/05/03 11:27:03;;;;;;;3.65;2.68;;;;;;;8.05;66.41;100660.97;126697;1111;22395;-77
2021/05/03 11:29:43;;;;;;;5.28;4.03;;;;;;;7.99;66.71;100662.36;126904;1110;22377;-74
2021/05/03 11:32:35;;;;;;;8.45;4.13;;;;;;;7.93;66.83;100658.52;126934;1109;22482;-74
2021/05/03 11:35:24;;;;;;;7.03;4.98;;;;;;;7.88;67.38;100665.99;126859;1111;22403;-75
2021/05/03 11:38:26;;;;;;;14.90;5.85;;;;;;;7.86;67.38;100657.41;127002;1111;22394;-74
2021/05/03 11:46:10;;;;;;;5.10;3.45;;;;;;;8.02;68.26;100662.08;127065;1105;24367;-74
2021/05/03 11:48:40;;;;;;;4.65;4.13;;;;;;;8.13;68.27;100659.28;127781;1101;24488;-74
2021/05/03 11:51:13;;;;;;;5.98;4.20;;;;;;;8.24;68.27;100659.09;127969;1104;22356;-74
2021/05/03 11:53:45;;;;;;;6.33;3.98;;;;;;;8.29;67.72;100660.45;128213;1101;22313;-74
2021/05/03 11:56:34;;;;;;;4.60;3.80;;;;;;;8.29;67.69;100650.75;128014;1101;24247;-74
2021/05/03 11:59:03;;;;;;;8.98;4.95;;;;;;;8.36;67.42;100661.52;127952;1104;22350;-73
2021/05/03 12:01:38;;;;;;;9.40;7.13;;;;;;;8.33;66.87;100662.67;127890;1104;22346;-74
2021/05/03 12:04:11;;;;;;;6.55;4.98;;;;;;;8.32;66.95;100654.90;127606;1102;24338;-75
2021/05/03 12:06:42;;;;;;;12.53;5.90;;;;;;;8.36;67.25;100657.08;127498;1108;22432;-75
2021/05/03 12:09:14;;;;;;;20.05;16.63;;;;;;;8.44;67.46;100659.86;127588;1107;22566;-76